Time;durP1;ratioP1;P1;durP2;ratioP2;P2;SDS_P1;SDS_P2;PMS_P1;PMS_P2;Temp;Humidity;BMP_temperature;BMP_pressure;BME280_temperature;BME280_humidity;BME280_pressure;Samples;Min_cycle;Max_cycle;Signal;HPM_P1;HPM_P2
2023/03/03 00:01:05;;;;;;;25.38;12.50;;;0.30;99.90;;;;;;5016257;28;20207;-61
2023/03/03 00:03:32;;;;;;;24.95;11.05;;;0.40;99.90;;;;;;5014338;28;20203;-61
2023/03/03 00:06:01;;;;;;;37.45;11.82;;;0.40;99.90;;;;;;5014633;28;20237;-61
2023/03/03 00:08:28;;;;;;;27.52;12.50;;;0.30;99.90;;;;;;5014699;28;20209;-61
2023/03/03 00:10:55;;;;;;;37.58;11.20;;;0.30;99.90;;;;;;5013714;28;20692;-62
2023/03/03 00:13:23;;;;;;;23.08;12.20;;;0.20;99.90;;;;;;5014502;28;20210;-62
2023/03/03 00:15:51;;;;;;;24.08;10.20;;;0.20;99.90;;;;;;5015202;28;20590;-61
2023/03/03 00:18:22;;;;;;;24.65;11.90;;;0.20;99.90;;;;;;5015411;28;20203;-61
2023/03/03 00:20:53;;;;;;;24.08;10.85;;;0.20;99.90;;;;;;5015930;28;20282;-60
2023/03/03 00:23:28;;;;;;;26.85;10.65;;;0.30;99.90;;;;;;5017524;28;20194;-61
2023/03/03 00:25:55;;;;;;;20.75;10.85;;;0.30;99.90;;;;;;5017605;28;20192;-62
2023/03/03 00:28:28;;;;;;;20.52;10.65;;;0.30;99.90;;;;;;5020818;28;20703;-61
2023/03/03 00:30:57;;;;;;;22.08;10.25;;;0.30;99.90;;;;;;5018583;28;20183;-60
2023/03/03 00:33:31;;;;;;;17.88;9.70;;;0.30;99.90;;;;;;5017623;28;20203;-61
2023/03/03 00:36:06;;;;;;;19.70;10.55;;;0.30;99.90;;;;;;5017355;28;20211;-62
2023/03/03 00:38:35;;;;;;;21.88;10.85;;;0.20;99.90;;;;;;5016941;28;20712;-62
2023/03/03 00:41:04;;;;;;;23.23;10.70;;;0.10;99.90;;;;;;5017222;28;20260;-61
2023/03/03 00:43:36;;;;;;;25.02;12.13;;;0.10;99.90;;;;;;5016972;28;20207;-61
2023/03/03 00:46:03;;;;;;;28.65;10.25;;;0.10;99.90;;;;;;5017139;28;20285;-60
2023/03/03 00:48:41;;;;;;;27.35;10.60;;;0.20;99.90;;;;;;5018839;28;20233;-61
2023/03/03 00:51:22;;;;;;;27.52;11.20;;;0.20;99.90;;;;;;5021105;28;20195;-59
2023/03/03 00:53:50;;;;;;;25.30;10.95;;;0.20;99.90;;;;;;5020721;28;20187;-61
2023/03/03 00:56:17;;;;;;;16.70;9.65;;;0.10;99.90;;;;;;5019522;28;20218;-60
2023/03/03 00:58:46;;;;;;;24.38;12.20;;;0.10;99.90;;;;;;5020836;28;20222;-61
2023/03/03 01:01:13;;;;;;;18.67;8.52;;;0.10;99.90;;;;;;5020280;28;20203;-61
2023/03/03 01:03:40;;;;;;;17.10;8.98;;;0.10;99.90;;;;;;5019700;28;20209;-61
2023/03/03 01:06:07;;;;;;;25.25;12.05;;;0.10;99.90;;;;;;5019425;28;20669;-61
2023/03/03 01:08:34;;;;;;;18.35;9.38;;;0.00;99.90;;;;;;5019597;28;20230;-60
2023/03/03 01:11:06;;;;;;;17.73;10.00;;;0.00;99.90;;;;;;5020816;28;20203;-60
2023/03/03 01:13:35;;;;;;;19.80;9.35;;;0.00;99.90;;;;;;5019548;28;20557;-60
2023/03/03 01:16:03;;;;;;;20.63;9.93;;;0.00;99.90;;;;;;5017590;28;20708;-60
2023/03/03 01:18:30;;;;;;;19.27;9.18;;;0.00;99.90;;;;;;5016745;28;20233;-61
2023/03/03 01:20:57;;;;;;;15.38;8.30;;;0.10;99.90;;;;;;5017027;28;20206;-61
2023/03/03 01:23:24;;;;;;;17.85;8.98;;;0.00;99.90;;;;;;5016607;28;20199;-62
2023/03/03 01:25:51;;;;;;;20.75;9.50;;;0.00;99.90;;;;;;5016598;28;20221;-62
2023/03/03 01:28:19;;;;;;;14.60;8.50;;;0.00;99.90;;;;;;5016378;28;20207;-62
2023/03/03 01:30:46;;;;;;;14.75;8.20;;;0.00;99.90;;;;;;5016240;28;20207;-61
2023/03/03 01:33:13;;;;;;;18.92;8.77;;;0.00;99.90;;;;;;5016736;28;20211;-60
2023/03/03 01:35:44;;;;;;;19.17;9.50;;;0.00;99.90;;;;;;5017137;28;20703;-62
2023/03/03 01:38:10;;;;;;;20.35;9.65;;;-0.10;99.90;;;;;;5016279;28;20198;-61
2023/03/03 01:40:37;;;;;;;13.52;8.27;;;-0.10;99.90;;;;;;5016684;28;20206;-62
2023/03/03 01:43:04;;;;;;;19.20;9.25;;;-0.10;99.90;;;;;;5016710;28;20656;-62
2023/03/03 01:45:44;;;;;;;18.02;8.98;;;-0.20;99.90;;;;;;5017002;28;20299;-61
2023/03/03 01:48:16;;;;;;;10.90;7.93;;;-0.10;99.90;;;;;;5016890;28;20183;-61
2023/03/03 01:50:48;;;;;;;20.48;9.90;;;-0.10;99.90;;;;;;5016608;28;20602;-61
2023/03/03 01:53:19;;;;;;;21.60;10.65;;;-0.10;99.90;;;;;;5017491;28;20191;-60
2023/03/03 01:55:47;;;;;;;20.48;10.95;;;-0.10;99.90;;;;;;5018058;28;20564;-61
2023/03/03 01:58:20;;;;;;;21.88;9.30;;;-0.10;99.90;;;;;;5018002;28;20202;-60
2023/03/03 02:00:53;;;;;;;18.42;9.65;;;-0.10;99.90;;;;;;5018396;28;20224;-59
2023/03/03 02:03:22;;;;;;;23.20;9.68;;;-0.10;99.90;;;;;;5018672;28;20187;-61
2023/03/03 02:05:50;;;;;;;22.05;11.15;;;-0.10;99.90;;;;;;5017084;28;20585;-60
2023/03/03 02:08:23;;;;;;;20.92;10.40;;;-0.10;99.90;;;;;;5016438;28;20676;-60
2023/03/03 02:10:51;;;;;;;20.45;10.18;;;-0.10;99.90;;;;;;5018175;28;20194;-61
2023/03/03 02:13:18;;;;;;;20.55;9.32;;;-0.10;99.90;;;;;;5018729;28;20783;-61
2023/03/03 02:15:44;;;;;;;19.45;11.02;;;0.00;99.90;;;;;;5019318;28;20582;-61
2023/03/03 02:18:15;;;;;;;19.58;10.32;;;-0.10;99.90;;;;;;5018339;28;20206;-62
2023/03/03 02:20:54;;;;;;;22.35;10.77;;;0.00;99.90;;;;;;5018891;28;20195;-61
2023/03/03 02:23:26;;;;;;;19.33;9.52;;;0.00;99.90;;;;;;5018795;28;20194;-61
2023/03/03 02:26:05;;;;;;;21.70;10.45;;;0.00;99.90;;;;;;5018381;28;20194;-61
2023/03/03 02:28:34;;;;;;;20.13;9.98;;;0.00;99.90;;;;;;5018047;28;20222;-61
2023/03/03 02:31:02;;;;;;;22.77;11.10;;;0.10;99.90;;;;;;5015617;28;20194;-60
2023/03/03 02:33:29;;;;;;;20.38;9.50;;;0.10;99.90;;;;;;5015413;28;20202;-61
2023/03/03 02:35:56;;;;;;;23.58;11.40;;;0.10;99.90;;;;;;5014845;28;20207;-61
2023/03/03 02:38:27;;;;;;;17.65;9.25;;;0.20;99.90;;;;;;5015133;28;20218;-61
2023/03/03 02:41:04;;;;;;;23.33;10.20;;;0.20;99.90;;;;;;5014774;28;20282;-61
2023/03/03 02:43:36;;;;;;;21.55;11.02;;;0.20;99.90;;;;;;5014946;28;20564;-60
2023/03/03 02:46:03;;;;;;;18.80;10.38;;;0.30;99.90;;;;;;5014792;28;20187;-62
2023/03/03 02:48:29;;;;;;;19.08;11.32;;;0.30;99.90;;;;;;5046561;22;20237;-60
2023/03/03 02:50:56;;;;;;;18.77;9.48;;;0.30;99.90;;;;;;5033487;28;20594;-60
2023/03/03 02:53:23;;;;;;;20.25;11.00;;;0.30;99.90;;;;;;5034480;28;20206;-59
2023/03/03 02:55:50;;;;;;;21.95;10.25;;;0.30;99.90;;;;;;5034024;28;20206;-60
2023/03/03 02:58:18;;;;;;;22.00;10.50;;;0.40;99.90;;;;;;5034124;28;20615;-59
2023/03/03 03:00:46;;;;;;;25.58;11.45;;;0.40;99.90;;;;;;5034119;28;20202;-58
2023/03/03 03:03:13;;;;;;;19.80;10.07;;;0.40;99.90;;;;;;5034148;28;20252;-60
2023/03/03 03:05:40;;;;;;;23.17;10.50;;;0.40;99.90;;;;;;5033995;28;20209;-60
2023/03/03 03:08:06;;;;;;;22.10;9.23;;;0.40;99.90;;;;;;5034024;28;20226;-60
2023/03/03 03:10:33;;;;;;;18.98;11.13;;;0.40;99.90;;;;;;5034224;28;20250;-60
2023/03/03 03:13:00;;;;;;;24.45;11.82;;;0.40;99.90;;;;;;5033540;28;20209;-59
2023/03/03 03:15:28;;;;;;;19.75;9.45;;;0.40;99.90;;;;;;5033755;28;20202;-59
2023/03/03 03:17:55;;;;;;;20.63;10.00;;;0.40;99.90;;;;;;5034140;28;20345;-59
2023/03/03 03:20:22;;;;;;;21.35;10.05;;;0.50;99.90;;;;;;5033684;28;20552;-59
2023/03/03 03:22:48;;;;;;;20.33;9.90;;;0.50;99.90;;;;;;5033744;28;20672;-59
2023/03/03 03:25:15;;;;;;;19.60;11.13;;;0.50;99.90;;;;;;5034294;28;20203;-59
2023/03/03 03:27:42;;;;;;;18.50;8.98;;;0.50;99.90;;;;;;5033389;28;20194;-60
2023/03/03 03:30:10;;;;;;;22.45;10.15;;;0.60;99.90;;;;;;5034017;28;20211;-60
2023/03/03 03:32:38;;;;;;;19.33;9.70;;;0.50;99.90;;;;;;5033770;28;20209;-61
2023/03/03 03:35:05;;;;;;;15.63;8.60;;;0.50;99.90;;;;;;5034328;28;20209;-59
2023/03/03 03:37:32;;;;;;;17.15;9.20;;;0.50;99.90;;;;;;5033478;28;20699;-59
2023/03/03 03:39:59;;;;;;;22.60;9.85;;;0.60;99.90;;;;;;5033589;28;20202;-61
2023/03/03 03:42:25;;;;;;;14.63;9.23;;;0.60;99.90;;;;;;5033567;28;20214;-59
2023/03/03 03:44:52;;;;;;;25.77;10.57;;;0.60;99.90;;;;;;5033936;28;20206;-60
2023/03/03 03:47:19;;;;;;;25.52;10.57;;;0.60;99.90;;;;;;5033507;28;20210;-60
2023/03/03 03:49:47;;;;;;;21.83;10.10;;;0.60;99.90;;;;;;5032838;28;20229;-60
2023/03/03 03:52:13;;;;;;;23.98;10.45;;;0.60;99.90;;;;;;5033346;28;20225;-60
2023/03/03 03:54:40;;;;;;;19.85;9.27;;;0.60;99.90;;;;;;5033094;28;20202;-59
2023/03/03 03:57:07;;;;;;;20.95;10.73;;;0.60;99.90;;;;;;5032915;28;20704;-59
2023/03/03 03:59:34;;;;;;;19.23;9.73;;;0.60;99.90;;;;;;5033034;28;20704;-60
2023/03/03 04:02:01;;;;;;;25.90;10.70;;;0.60;99.90;;;;;;5032915;28;20209;-59
2023/03/03 04:04:27;;;;;;;21.55;9.70;;;0.70;99.90;;;;;;5033001;28;20718;-59
2023/03/03 04:06:55;;;;;;;18.90;9.63;;;0.60;99.90;;;;;;5033218;28;20199;-59
2023/03/03 04:11:18;;;;;;;23.05;11.63;;;0.70;99.90;;;;;;5091045;27;20549;-60
2023/03/03 04:13:45;;;;;;;25.70;11.75;;;0.70;99.90;;;;;;5090674;28;20201;-60
2023/03/03 04:16:11;;;;;;;18.48;9.65;;;0.70;99.90;;;;;;5090527;28;20677;-59
2023/03/03 04:18:38;;;;;;;20.38;10.80;;;0.70;99.90;;;;;;5090551;28;20279;-60
2023/03/03 04:21:05;;;;;;;20.10;10.10;;;0.60;99.90;;;;;;5090563;28;20212;-57
2023/03/03 04:23:32;;;;;;;23.33;10.88;;;0.60;99.90;;;;;;5090650;28;20201;-59
2023/03/03 04:25:58;;;;;;;24.73;11.25;;;0.60;99.90;;;;;;5090801;28;20204;-60
2023/03/03 04:28:27;;;;;;;27.17;12.07;;;0.70;99.90;;;;;;5090691;28;20220;-60
2023/03/03 04:30:53;;;;;;;29.27;13.50;;;0.70;99.90;;;;;;5090367;28;20270;-59
2023/03/03 04:33:20;;;;;;;24.17;11.93;;;0.70;99.90;;;;;;5090383;28;20211;-59
2023/03/03 04:35:47;;;;;;;28.05;11.35;;;0.70;99.90;;;;;;5090669;28;20596;-60
2023/03/03 04:38:13;;;;;;;23.08;11.70;;;0.70;99.90;;;;;;5090701;28;20228;-60
2023/03/03 04:40:41;;;;;;;26.80;12.90;;;0.70;99.90;;;;;;5090459;28;20193;-60
2023/03/03 04:43:08;;;;;;;18.65;10.50;;;0.70;99.90;;;;;;5090444;28;20689;-60
2023/03/03 04:45:37;;;;;;;26.85;11.15;;;0.70;99.90;;;;;;5091781;28;20211;-60
2023/03/03 04:48:04;;;;;;;27.60;12.57;;;0.70;99.90;;;;;;5090875;28;20590;-61
2023/03/03 04:50:30;;;;;;;21.17;11.98;;;0.70;99.90;;;;;;5090523;28;20220;-59
2023/03/03 04:52:57;;;;;;;26.85;12.20;;;0.70;99.90;;;;;;5089867;28;20705;-60
2023/03/03 04:55:24;;;;;;;19.48;11.00;;;0.70;99.90;;;;;;5090089;28;20574;-60
2023/03/03 04:57:51;;;;;;;24.40;10.43;;;0.80;99.90;;;;;;5090542;28;20227;-59
2023/03/03 05:00:18;;;;;;;32.22;12.73;;;0.80;99.90;;;;;;5090956;28;20201;-60
2023/03/03 05:02:48;;;;;;;23.15;11.13;;;0.80;99.90;;;;;;5090343;28;20211;-59
2023/03/03 05:05:15;;;;;;;29.98;12.50;;;0.80;99.90;;;;;;5090572;28;20230;-59
2023/03/03 05:07:41;;;;;;;25.60;11.70;;;0.80;99.90;;;;;;5090178;28;20684;-60
2023/03/03 05:10:09;;;;;;;24.00;11.70;;;0.80;99.90;;;;;;5090236;28;20221;-60
2023/03/03 05:12:36;;;;;;;27.92;13.20;;;0.80;99.90;;;;;;5090208;28;20196;-59
2023/03/03 05:15:03;;;;;;;23.48;11.15;;;0.80;99.90;;;;;;5090300;28;20207;-60
2023/03/03 05:17:30;;;;;;;21.23;11.70;;;0.90;99.90;;;;;;5090105;28;20207;-59
2023/03/03 05:19:58;;;;;;;25.90;12.23;;;0.90;99.90;;;;;;5090070;28;20193;-58
2023/03/03 05:22:25;;;;;;;22.73;11.93;;;0.90;99.90;;;;;;5077866;28;20201;-59
2023/03/03 05:24:52;;;;;;;24.27;12.90;;;0.90;99.90;;;;;;5076149;28;20204;-59
2023/03/03 05:27:19;;;;;;;25.60;12.63;;;0.90;99.90;;;;;;5076189;28;20244;-60
2023/03/03 05:29:46;;;;;;;21.60;9.90;;;0.90;99.90;;;;;;5076078;28;20224;-60
2023/03/03 05:32:13;;;;;;;22.35;10.25;;;0.90;99.90;;;;;;5076223;28;20735;-59
2023/03/03 05:34:40;;;;;;;22.88;9.80;;;0.90;99.90;;;;;;5076692;28;20204;-60
2023/03/03 05:37:08;;;;;;;17.75;10.20;;;0.90;99.90;;;;;;5076072;28;20205;-59
2023/03/03 05:39:35;;;;;;;21.42;9.82;;;0.90;99.90;;;;;;5076022;28;20221;-61
2023/03/03 05:42:02;;;;;;;21.70;10.70;;;0.90;99.90;;;;;;5075917;28;20201;-59
2023/03/03 05:44:29;;;;;;;22.35;11.20;;;0.90;99.90;;;;;;5075777;28;20201;-60
2023/03/03 05:46:57;;;;;;;24.38;10.35;;;0.90;99.90;;;;;;5076552;28;20205;-59
2023/03/03 05:49:24;;;;;;;23.08;10.73;;;0.90;99.90;;;;;;5075529;28;20217;-59
2023/03/03 05:51:51;;;;;;;21.08;10.82;;;0.90;99.90;;;;;;5075652;28;20201;-60
2023/03/03 05:54:19;;;;;;;22.67;10.48;;;0.90;99.90;;;;;;5075175;28;20673;-60
2023/03/03 05:56:46;;;;;;;16.10;9.32;;;0.90;99.90;;;;;;5076009;28;20197;-59
2023/03/03 05:59:14;;;;;;;22.85;11.63;;;0.90;99.90;;;;;;5075549;28;20596;-60
2023/03/03 06:01:40;;;;;;;21.08;10.35;;;0.90;99.90;;;;;;5075770;28;20203;-58
2023/03/03 06:04:07;;;;;;;22.35;10.93;;;1.00;99.90;;;;;;5075890;28;20201;-60
2023/03/03 06:06:34;;;;;;;25.45;10.20;;;1.00;99.90;;;;;;5075391;28;20713;-59
2023/03/03 06:09:01;;;;;;;22.33;10.57;;;1.00;99.90;;;;;;5074937;28;20231;-60
2023/03/03 06:11:29;;;;;;;23.20;11.57;;;1.00;99.90;;;;;;5075152;28;20209;-60
2023/03/03 06:13:56;;;;;;;30.02;12.98;;;1.00;99.90;;;;;;5075884;28;20212;-59
2023/03/03 06:16:23;;;;;;;25.27;11.57;;;1.00;99.90;;;;;;5075586;28;20209;-60
2023/03/03 06:18:49;;;;;;;19.85;10.43;;;1.00;99.90;;;;;;5075178;28;20233;-60
2023/03/03 06:21:16;;;;;;;24.58;10.23;;;1.00;99.90;;;;;;5081490;28;20197;-59
2023/03/03 06:23:43;;;;;;;22.38;11.60;;;1.10;99.90;;;;;;5082025;28;20203;-60
2023/03/03 06:26:10;;;;;;;20.83;11.80;;;1.10;99.90;;;;;;5082264;28;20211;-59
2023/03/03 06:28:38;;;;;;;22.02;10.98;;;1.10;99.90;;;;;;5074020;28;20233;-60
2023/03/03 06:31:05;;;;;;;26.42;11.60;;;1.10;99.90;;;;;;5055368;28;20224;-59
2023/03/03 06:33:32;;;;;;;23.90;11.30;;;1.20;99.90;;;;;;5055797;28;20205;-60
2023/03/03 06:35:58;;;;;;;23.58;12.00;;;1.20;99.90;;;;;;5056963;28;20571;-59
2023/03/03 06:38:25;;;;;;;27.75;11.90;;;1.30;99.90;;;;;;5055522;28;20217;-60
2023/03/03 06:40:52;;;;;;;31.75;13.82;;;1.30;99.90;;;;;;5055381;28;20202;-60
2023/03/03 06:43:19;;;;;;;28.73;14.25;;;1.30;99.90;;;;;;5058513;28;20198;-59
2023/03/03 06:45:47;;;;;;;31.33;13.25;;;1.30;99.90;;;;;;5061908;28;20202;-60
2023/03/03 06:48:14;;;;;;;29.75;14.80;;;1.30;99.90;;;;;;5062749;28;20233;-59
2023/03/03 06:50:41;;;;;;;30.10;13.85;;;1.20;99.90;;;;;;5061639;28;20230;-62
2023/03/03 06:53:12;;;;;;;30.27;13.88;;;1.30;99.90;;;;;;5069391;28;20233;-60
2023/03/03 06:55:39;;;;;;;26.05;12.45;;;1.20;99.90;;;;;;5077282;28;20567;-58
2023/03/03 06:58:12;;;;;;;27.50;13.27;;;1.30;99.90;;;;;;5060805;28;20224;-60
2023/03/03 07:00:40;;;;;;;26.88;13.32;;;1.20;99.90;;;;;;5055602;28;20607;-58
2023/03/03 07:03:14;;;;;;;26.90;13.00;;;1.20;99.90;;;;;;5064437;28;20201;-58
2023/03/03 07:05:41;;;;;;;22.30;10.88;;;1.20;99.90;;;;;;5056866;28;20296;-59
2023/03/03 07:08:14;;;;;;;24.33;13.50;;;1.30;99.90;;;;;;5062581;28;20241;-61
2023/03/03 07:10:41;;;;;;;26.38;12.82;;;1.30;99.90;;;;;;5062750;28;20606;-61
2023/03/03 07:13:18;;;;;;;24.65;12.55;;;1.30;99.90;;;;;;5064770;28;20205;-60
2023/03/03 07:15:46;;;;;;;22.70;11.93;;;1.30;99.90;;;;;;5062436;28;20196;-60
2023/03/03 07:18:31;;;;;;;28.40;14.00;;;1.30;99.90;;;;;;5073765;28;20227;-60
2023/03/03 07:20:59;;;;;;;22.67;12.20;;;1.20;99.90;;;;;;5061398;28;20645;-60
2023/03/03 07:23:32;;;;;;;25.17;14.23;;;1.30;99.90;;;;;;5061175;28;20197;-60
2023/03/03 07:25:58;;;;;;;20.48;11.73;;;1.40;99.90;;;;;;5063091;28;20185;-61
2023/03/03 07:28:28;;;;;;;28.55;15.02;;;1.40;99.90;;;;;;5069910;28;20225;-60
2023/03/03 07:30:56;;;;;;;32.20;14.50;;;1.50;99.90;;;;;;5060061;28;20270;-59
2023/03/03 07:33:27;;;;;;;28.50;16.15;;;1.60;99.90;;;;;;5062873;28;20201;-60
2023/03/03 07:35:56;;;;;;;26.27;14.48;;;1.60;99.90;;;;;;5071574;28;20208;-59
2023/03/03 07:38:34;;;;;;;32.08;15.70;;;1.60;99.90;;;;;;5063223;28;20237;-58
2023/03/03 07:41:02;;;;;;;28.70;15.10;;;1.60;99.90;;;;;;5065169;28;20194;-60
2023/03/03 07:43:35;;;;;;;24.98;12.13;;;1.60;99.90;;;;;;5054756;28;20205;-60
2023/03/03 07:46:18;;;;;;;21.33;11.30;;;1.60;99.90;;;;;;5071475;28;20208;-59
2023/03/03 07:48:47;;;;;;;25.05;13.57;;;1.60;99.90;;;;;;5067883;28;20526;-59
2023/03/03 07:51:21;;;;;;;24.17;11.25;;;1.70;99.90;;;;;;5059874;28;20237;-59
2023/03/03 07:53:48;;;;;;;21.50;12.63;;;1.70;99.90;;;;;;5061151;28;20288;-60
2023/03/03 07:56:28;;;;;;;20.17;11.48;;;1.70;99.90;;;;;;5063100;28;20209;-60
2023/03/03 07:58:56;;;;;;;22.13;12.63;;;1.70;99.90;;;;;;5062069;28;20528;-60
2023/03/03 08:01:39;;;;;;;20.75;11.82;;;1.60;99.90;;;;;;5064518;28;20271;-58
2023/03/03 08:04:19;;;;;;;18.38;10.38;;;1.60;99.90;;;;;;5064164;28;20189;-56
2023/03/03 08:06:56;;;;;;;20.27;11.13;;;1.60;99.90;;;;;;5057603;28;20243;-60
2023/03/03 08:09:44;;;;;;;18.52;9.75;;;1.70;99.90;;;;;;5061918;28;20233;-60
2023/03/03 08:12:36;;;;;;;19.60;9.68;;;1.80;99.90;;;;;;5062276;28;20562;-60
2023/03/03 08:15:22;;;;;;;21.40;10.57;;;1.90;99.90;;;;;;5059995;28;20186;-60
2023/03/03 08:17:50;;;;;;;26.60;12.07;;;2.00;99.90;;;;;;5059192;28;20221;-60
2023/03/03 08:20:46;;;;;;;21.40;11.48;;;2.00;99.90;;;;;;5059117;28;20197;-59
2023/03/03 08:23:14;;;;;;;21.88;12.35;;;2.10;99.90;;;;;;5062586;28;20186;-58
2023/03/03 08:25:41;;;;;;;18.55;10.52;;;2.10;99.90;;;;;;5062295;28;20205;-61
2023/03/03 08:28:09;;;;;;;21.73;11.68;;;2.10;99.90;;;;;;5055491;28;20222;-60
2023/03/03 08:30:35;;;;;;;25.77;13.32;;;2.10;99.90;;;;;;5054304;28;20235;-60
2023/03/03 08:33:02;;;;;;;21.58;13.82;;;2.20;99.90;;;;;;5053689;28;20208;-60
2023/03/03 08:35:29;;;;;;;32.20;16.52;;;2.30;99.90;;;;;;5053765;28;20201;-60
2023/03/03 08:37:57;;;;;;;30.75;14.95;;;2.30;99.90;;;;;;5054607;28;20221;-60
2023/03/03 08:40:24;;;;;;;36.45;17.30;;;2.30;99.90;;;;;;5054400;28;20206;-59
2023/03/03 08:42:51;;;;;;;33.00;17.58;;;2.30;99.90;;;;;;5053679;28;20210;-60
2023/03/03 08:45:18;;;;;;;30.80;17.20;;;2.40;99.90;;;;;;5054127;28;20208;-60
2023/03/03 08:47:44;;;;;;;33.30;17.90;;;2.30;99.90;;;;;;5069779;28;20740;-59
2023/03/03 08:50:12;;;;;;;26.83;15.82;;;2.20;99.90;;;;;;5069017;22;20222;-60
2023/03/03 08:52:39;;;;;;;27.67;15.30;;;2.20;99.90;;;;;;5034238;28;20658;-61
2023/03/03 08:55:08;;;;;;;28.88;15.40;;;2.20;99.90;;;;;;5036130;28;20703;-60
2023/03/03 08:57:35;;;;;;;25.65;13.05;;;2.30;99.90;;;;;;5035707;28;20202;-59
2023/03/03 09:00:02;;;;;;;23.92;16.30;;;2.40;99.90;;;;;;5037038;28;20229;-60
2023/03/03 09:02:28;;;;;;;32.10;16.65;;;2.50;99.90;;;;;;5036680;28;20561;-60
2023/03/03 09:04:55;;;;;;;35.33;17.52;;;2.60;99.90;;;;;;5035839;28;20203;-60
2023/03/03 09:07:22;;;;;;;39.10;18.65;;;2.80;99.90;;;;;;5036336;28;20574;-60
2023/03/03 09:09:49;;;;;;;37.28;20.15;;;2.80;99.90;;;;;;5036162;28;20715;-59
2023/03/03 09:12:19;;;;;;;33.58;17.73;;;2.90;99.90;;;;;;5036965;28;20313;-59
2023/03/03 09:14:47;;;;;;;35.58;18.92;;;2.90;99.90;;;;;;5036090;28;20640;-58
2023/03/03 09:17:24;;;;;;;33.00;16.67;;;2.90;99.90;;;;;;5037022;28;20206;-62
2023/03/03 09:19:51;;;;;;;37.70;18.98;;;2.90;99.90;;;;;;5036829;28;20226;-59
2023/03/03 09:22:20;;;;;;;36.90;21.02;;;2.90;99.90;;;;;;5036827;28;20206;-58
2023/03/03 09:24:48;;;;;;;33.38;17.65;;;2.90;99.90;;;;;;5037322;28;20202;-60
2023/03/03 09:27:22;;;;;;;31.63;17.58;;;2.90;99.90;;;;;;5036750;28;20210;-58
2023/03/03 09:29:49;;;;;;;33.90;18.60;;;3.00;99.90;;;;;;5036655;28;20230;-60
2023/03/03 09:32:30;;;;;;;34.72;19.80;;;3.00;99.90;;;;;;5037038;28;20222;-59
2023/03/03 09:34:56;;;;;;;35.28;19.83;;;3.00;99.90;;;;;;5038440;28;20273;-60
2023/03/03 09:37:26;;;;;;;39.50;22.10;;;3.10;99.90;;;;;;5039260;28;20213;-59
2023/03/03 09:40:09;;;;;;;35.50;19.80;;;3.10;99.90;;;;;;5040575;28;20229;-57
2023/03/03 09:42:59;;;;;;;36.38;21.73;;;3.20;99.90;;;;;;5042911;28;20700;-59
2023/03/03 09:45:48;;;;;;;35.85;19.13;;;3.20;99.90;;;;;;5042597;28;20190;-58
2023/03/03 09:48:44;;;;;;;31.42;18.80;;;3.30;99.90;;;;;;5039644;28;20187;-60
2023/03/03 09:51:24;;;;;;;35.85;20.45;;;3.30;99.90;;;;;;5040702;28;20203;-59
2023/03/03 09:54:11;;;;;;;35.75;19.23;;;3.30;99.90;;;;;;5037559;28;20197;-59
2023/03/03 09:56:41;;;;;;;36.50;17.65;;;3.40;99.90;;;;;;5039149;28;20190;-58
2023/03/03 09:59:27;;;;;;;35.22;18.05;;;3.50;99.90;;;;;;5039791;28;20250;-58
2023/03/03 10:02:07;;;;;;;34.25;17.55;;;3.50;99.90;;;;;;5037973;28;20186;-59
2023/03/03 10:04:53;;;;;;;31.58;15.40;;;3.50;99.90;;;;;;5038980;28;20198;-59
2023/03/03 10:07:27;;;;;;;31.65;17.05;;;3.40;99.90;;;;;;5036318;28;20186;-59
2023/03/03 10:10:16;;;;;;;29.55;16.08;;;3.40;99.90;;;;;;5036268;28;20238;-59
2023/03/03 10:12:50;;;;;;;35.50;17.90;;;3.40;99.90;;;;;;5036564;28;20212;-60
2023/03/03 10:15:38;;;;;;;32.45;17.00;;;3.50;99.90;;;;;;5037636;28;20273;-60
2023/03/03 10:18:24;;;;;;;38.30;18.17;;;3.60;99.90;;;;;;5036332;28;20187;-59
2023/03/03 10:21:04;;;;;;;32.08;18.63;;;3.60;99.90;;;;;;5035357;28;20194;-60
2023/03/03 10:23:53;;;;;;;29.10;16.48;;;3.70;99.90;;;;;;5034743;28;20664;-61
2023/03/03 10:26:38;;;;;;;31.65;17.23;;;3.70;99.90;;;;;;5036272;28;20774;-60
2023/03/03 10:29:20;;;;;;;30.10;16.33;;;3.70;99.90;;;;;;5032970;28;20341;-58
2023/03/03 10:32:01;;;;;;;30.48;16.75;;;3.70;99.90;;;;;;5037488;28;20217;-58
2023/03/03 10:35:07;;;;;;;34.88;19.33;;;3.70;99.90;;;;;;5038302;28;20198;-59
2023/03/03 10:37:52;;;;;;;42.25;20.25;;;3.70;99.90;;;;;;4977038;28;20189;-58
2023/03/03 10:40:27;;;;;;;35.00;20.25;;;3.70;99.90;;;;;;4976637;28;20227;-60
2023/03/03 10:43:16;;;;;;;33.50;16.85;;;3.70;99.90;;;;;;5017765;28;20309;-58
2023/03/03 10:46:02;;;;;;;31.40;18.52;;;3.70;99.90;;;;;;5034680;28;20194;-59
2023/03/03 10:49:05;;;;;;;37.85;19.45;;;3.70;99.90;;;;;;5034322;28;20277;-58
2023/03/03 10:51:41;;;;;;;31.70;17.88;;;3.70;99.90;;;;;;5033864;28;20206;-58
2023/03/03 10:54:23;;;;;;;28.08;15.23;;;3.80;99.90;;;;;;5034658;28;20190;-60
2023/03/03 10:56:57;;;;;;;34.83;18.65;;;3.90;99.90;;;;;;5034213;28;20193;-59
2023/03/03 10:59:42;;;;;;;32.33;18.20;;;3.90;99.90;;;;;;5034416;28;20225;-58
2023/03/03 11:02:16;;;;;;;37.40;19.77;;;4.00;99.90;;;;;;5034688;28;20206;-59
2023/03/03 11:04:53;;;;;;;31.42;17.95;;;4.00;99.90;;;;;;5036013;28;20194;-59
2023/03/03 11:07:26;;;;;;;37.08;20.48;;;4.00;99.90;;;;;;5034371;28;20195;-58
2023/03/03 11:10:03;;;;;;;31.90;17.25;;;3.90;99.90;;;;;;5036091;28;20238;-59
2023/03/03 11:12:44;;;;;;;31.77;17.95;;;3.90;99.90;;;;;;5034215;28;20308;-58
2023/03/03 11:15:34;;;;;;;27.17;14.38;;;4.00;99.90;;;;;;5034565;28;20193;-59
2023/03/03 11:18:14;;;;;;;23.80;13.48;;;4.20;99.90;;;;;;5034852;28;20193;-59
2023/03/03 11:20:49;;;;;;;23.67;15.60;;;4.40;99.90;;;;;;5036049;28;20297;-58
2023/03/03 11:23:46;;;;;;;26.67;13.57;;;4.50;99.90;;;;;;5035725;28;20179;-59
2023/03/03 11:26:19;;;;;;;23.90;12.55;;;4.50;99.90;;;;;;5035465;28;20187;-58
2023/03/03 11:29:01;;;;;;;22.30;12.55;;;4.40;99.90;;;;;;5035163;28;20579;-58
2023/03/03 11:31:38;;;;;;;23.60;13.00;;;4.30;99.90;;;;;;5035674;28;20229;-59
2023/03/03 11:34:16;;;;;;;22.60;12.38;;;4.20;99.90;;;;;;5035743;28;20189;-59
2023/03/03 11:36:49;;;;;;;26.25;13.32;;;4.20;99.90;;;;;;5038282;28;20193;-59
2023/03/03 11:39:18;;;;;;;27.67;16.42;;;4.20;99.90;;;;;;5036982;28;20225;-59
2023/03/03 11:41:59;;;;;;;31.73;16.60;;;4.30;99.90;;;;;;5040080;28;20633;-60
2023/03/03 11:44:30;;;;;;;28.80;16.00;;;4.30;99.90;;;;;;5035447;28;20636;-59
2023/03/03 11:47:03;;;;;;;27.92;14.20;;;4.40;99.90;;;;;;5036988;28;20189;-59
2023/03/03 11:49:37;;;;;;;26.98;16.40;;;4.40;99.90;;;;;;5033826;28;20237;-61
2023/03/03 11:52:21;;;;;;;25.65;14.63;;;4.40;99.90;;;;;;5033810;28;20209;-61
2023/03/03 11:54:52;;;;;;;27.58;16.38;;;4.50;99.90;;;;;;5035734;28;20182;-63
2023/03/03 11:57:23;;;;;;;32.60;16.60;;;4.60;99.90;;;;;;5034541;28;20621;-60
2023/03/03 12:00:04;;;;;;;33.20;17.40;;;4.60;99.90;;;;;;5036266;28;20672;-60
2023/03/03 12:02:54;;;;;;;30.13;16.20;;;4.70;99.90;;;;;;5040860;28;20186;-61
2023/03/03 12:05:38;;;;;;;32.55;15.88;;;4.80;99.90;;;;;;5036696;28;20194;-61
2023/03/03 12:08:14;;;;;;;31.33;16.35;;;4.80;99.90;;;;;;5038406;28;20645;-60
2023/03/03 12:10:49;;;;;;;29.25;15.80;;;4.80;99.90;;;;;;5033605;28;20224;-59
2023/03/03 12:13:22;;;;;;;38.13;17.67;;;4.90;99.90;;;;;;5034089;28;20210;-60
2023/03/03 12:15:55;;;;;;;26.88;14.20;;;4.90;99.90;;;;;;5034691;28;20182;-58
2023/03/03 12:18:53;;;;;;;26.15;13.65;;;5.00;99.90;;;;;;5034471;28;20182;-59
2023/03/03 12:21:34;;;;;;;33.92;16.00;;;5.10;99.90;;;;;;5034349;28;20222;-60
2023/03/03 12:24:16;;;;;;;32.20;15.25;;;5.10;99.90;;;;;;5035337;28;20595;-59
2023/03/03 12:26:51;;;;;;;28.55;14.50;;;5.20;99.90;;;;;;5034447;28;20326;-60
2023/03/03 12:29:27;;;;;;;28.55;15.18;;;5.20;99.90;;;;;;5034539;28;20244;-59
2023/03/03 12:32:01;;;;;;;28.55;14.75;;;5.20;99.90;;;;;;5035742;28;20206;-58
2023/03/03 12:34:39;;;;;;;33.42;16.42;;;5.20;99.90;;;;;;5037471;28;20723;-59
2023/03/03 12:37:41;;;;;;;25.67;13.55;;;5.10;99.90;;;;;;5036794;28;20186;-59
2023/03/03 12:40:13;;;;;;;29.02;14.60;;;5.20;99.90;;;;;;5037282;28;20225;-59
2023/03/03 12:42:51;;;;;;;34.30;15.65;;;5.30;99.90;;;;;;5037109;28;20206;-59
2023/03/03 12:45:38;;;;;;;27.70;14.57;;;5.30;99.90;;;;;;5037379;28;20287;-61
2023/03/03 12:48:12;;;;;;;30.60;15.80;;;5.30;99.90;;;;;;5037549;28;20600;-59
2023/03/03 12:50:54;;;;;;;29.23;15.35;;;5.30;99.90;;;;;;5037007;28;20610;-60
2023/03/03 12:53:34;;;;;;;30.38;15.70;;;5.40;99.90;;;;;;5036877;28;20222;-59
2023/03/03 12:56:05;;;;;;;34.15;16.02;;;5.40;99.90;;;;;;5036836;28;20660;-60
2023/03/03 12:58:47;;;;;;;33.38;14.75;;;5.40;99.90;;;;;;5038620;28;20234;-61
2023/03/03 13:01:30;;;;;;;27.25;15.10;;;5.40;99.90;;;;;;5027553;28;20202;-60
2023/03/03 13:04:08;;;;;;;28.33;14.43;;;5.30;99.90;;;;;;5037906;28;20226;-60